Time;durP1;ratioP1;P1;durP2;ratioP2;P2;SDS_P1;SDS_P2;PMS_P1;PMS_P2;Temp;Humidity;BMP_temperature;BMP_pressure;BME280_temperature;BME280_humidity;BME280_pressure;Samples;Min_cycle;Max_cycle;Signal;HPM_P1;HPM_P2
2021/09/14 00:00:07;;;;;;;16.77;14.98;;;10.10;99.90;;;;;;5023348;28;20045;-86
2021/09/14 00:02:34;;;;;;;19.02;16.52;;;10.10;99.90;;;;;;5048944;28;20049;-86
2021/09/14 00:05:01;;;;;;;18.58;15.68;;;10.00;99.90;;;;;;5015691;28;20049;-86
2021/09/14 00:07:28;;;;;;;18.08;15.93;;;9.90;99.90;;;;;;5015363;28;20053;-86
2021/09/14 00:09:55;;;;;;;24.58;18.60;;;9.90;99.90;;;;;;5015994;28;20482;-86
2021/09/14 00:12:22;;;;;;;26.00;18.80;;;9.80;99.90;;;;;;5015810;28;20063;-86
2021/09/14 00:14:49;;;;;;;22.70;17.55;;;9.80;99.90;;;;;;5015327;28;20046;-86
2021/09/14 00:17:16;;;;;;;19.35;16.70;;;9.70;99.90;;;;;;5015594;28;20045;-85
2021/09/14 00:19:43;;;;;;;26.23;17.75;;;9.70;99.90;;;;;;5015627;28;20059;-85
2021/09/14 00:22:10;;;;;;;21.42;16.70;;;9.60;99.90;;;;;;5015457;28;20056;-86
2021/09/14 00:24:36;;;;;;;23.73;18.88;;;9.60;99.90;;;;;;5015435;28;20045;-85
2021/09/14 00:27:03;;;;;;;20.25;17.00;;;9.60;99.90;;;;;;5033042;28;20569;-85
2021/09/14 00:29:30;;;;;;;20.55;17.50;;;9.60;99.90;;;;;;5015554;28;20041;-86
2021/09/14 00:31:57;;;;;;;21.00;16.35;;;9.60;99.90;;;;;;5033150;28;20056;-86
2021/09/14 00:34:23;;;;;;;23.73;17.88;;;9.60;99.90;;;;;;5015687;28;20504;-85
2021/09/14 00:36:50;;;;;;;19.30;16.42;;;9.60;99.90;;;;;;5015442;28;20053;-85
2021/09/14 00:39:17;;;;;;;18.45;15.73;;;9.70;99.90;;;;;;5015795;28;20136;-86
2021/09/14 00:41:44;;;;;;;25.02;17.83;;;9.70;99.90;;;;;;5015441;28;20054;-86
2021/09/14 00:44:11;;;;;;;20.52;16.88;;;9.50;99.90;;;;;;5015646;28;20045;-86
2021/09/14 00:46:38;;;;;;;20.10;17.75;;;9.40;99.90;;;;;;5015433;28;20050;-86
2021/09/14 00:49:05;;;;;;;22.20;16.70;;;9.40;99.90;;;;;;5032829;28;20049;-86
2021/09/14 00:51:32;;;;;;;21.52;18.25;;;9.50;99.90;;;;;;5015451;28;20045;-86
2021/09/14 00:53:59;;;;;;;26.45;19.00;;;9.50;99.90;;;;;;5015743;28;20051;-85
2021/09/14 00:56:26;;;;;;;20.13;17.92;;;9.40;99.90;;;;;;5032626;28;20055;-85
2021/09/14 00:58:54;;;;;;;22.67;17.95;;;9.50;99.90;;;;;;5015517;28;20144;-85
2021/09/14 01:01:20;;;;;;;24.23;17.00;;;9.50;99.90;;;;;;5032853;28;20056;-85
2021/09/14 01:03:48;;;;;;;18.45;16.45;;;9.60;99.90;;;;;;5015382;28;20096;-85
2021/09/14 01:06:16;;;;;;;19.60;17.13;;;9.60;99.90;;;;;;5015408;28;20410;-85
2021/09/14 01:08:43;;;;;;;17.80;15.95;;;9.60;99.90;;;;;;5014839;28;20057;-85
2021/09/14 01:11:10;;;;;;;18.35;16.45;;;9.60;99.90;;;;;;5033847;28;20045;-85
2021/09/14 01:13:36;;;;;;;20.70;15.43;;;9.60;99.90;;;;;;5019163;28;20446;-85
2021/09/14 01:16:11;;;;;;;16.20;14.60;;;9.60;99.90;;;;;;5028309;28;20029;-86
2021/09/14 01:18:39;;;;;;;25.48;15.38;;;9.60;99.90;;;;;;5045143;28;20048;-85
2021/09/14 01:21:09;;;;;;;18.00;15.13;;;9.50;99.90;;;;;;5036345;28;20049;-85
2021/09/14 01:23:35;;;;;;;15.73;14.10;;;9.50;99.90;;;;;;5018537;28;20059;-85
2021/09/14 01:26:02;;;;;;;21.55;16.08;;;9.50;99.90;;;;;;5051506;28;20052;-85
2021/09/14 01:28:29;;;;;;;17.05;15.25;;;9.60;99.90;;;;;;5018985;28;20104;-85
2021/09/14 01:30:56;;;;;;;21.65;15.68;;;9.50;99.90;;;;;;5018960;28;20042;-85
2021/09/14 01:33:23;;;;;;;17.52;15.75;;;9.50;99.90;;;;;;5018371;28;20053;-85
2021/09/14 01:35:50;;;;;;;20.85;15.15;;;9.40;99.90;;;;;;5018718;28;20136;-85
2021/09/14 01:38:16;;;;;;;19.33;15.70;;;9.40;99.90;;;;;;5051563;28;20506;-86
2021/09/14 01:40:47;;;;;;;19.85;16.20;;;9.30;99.90;;;;;;5018443;28;20124;-85
2021/09/14 01:43:14;;;;;;;19.88;17.65;;;9.30;99.90;;;;;;5018469;28;20100;-86
2021/09/14 01:45:41;;;;;;;21.33;17.48;;;9.30;99.90;;;;;;5035781;28;20045;-86
2021/09/14 01:48:08;;;;;;;18.75;16.85;;;9.30;99.90;;;;;;5035861;28;20057;-85
2021/09/14 01:50:35;;;;;;;19.42;16.52;;;9.40;99.90;;;;;;5018122;28;20071;-86
2021/09/14 01:53:02;;;;;;;21.90;18.05;;;9.50;99.90;;;;;;5035635;28;20058;-85
2021/09/14 01:55:30;;;;;;;18.65;16.10;;;9.40;99.90;;;;;;5018170;28;20045;-86
2021/09/14 01:57:57;;;;;;;15.95;14.23;;;9.40;99.90;;;;;;5051504;28;20060;-86
2021/09/14 02:00:31;;;;;;;16.77;14.18;;;9.40;99.90;;;;;;5018396;28;20051;-86
2021/09/14 03:00:13;;;;;;;16.55;13.77;;;9.90;99.90;;;;;;4993339;28;20515;-86
2021/09/14 03:02:43;;;;;;;16.10;13.90;;;9.90;99.90;;;;;;5025981;28;20065;-86
2021/09/14 03:05:10;;;;;;;17.52;13.82;;;9.80;99.90;;;;;;5049298;28;20060;-85
2021/09/14 03:07:37;;;;;;;15.07;13.60;;;9.80;99.90;;;;;;5033719;28;20161;-85
2021/09/14 03:10:04;;;;;;;14.02;12.50;;;9.80;99.90;;;;;;5016888;28;20482;-85
2021/09/14 03:12:31;;;;;;;13.85;12.50;;;9.80;99.90;;;;;;5033998;28;20049;-85
2021/09/14 03:14:58;;;;;;;14.20;12.55;;;9.70;99.90;;;;;;5033650;28;20087;-85
2021/09/14 03:17:24;;;;;;;16.02;13.07;;;9.70;99.90;;;;;;5033984;28;20045;-85
2021/09/14 03:19:51;;;;;;;14.63;12.75;;;9.60;99.90;;;;;;5033911;28;20060;-85
2021/09/14 03:22:18;;;;;;;17.73;14.70;;;9.60;99.90;;;;;;5033790;28;20060;-86
2021/09/14 03:24:45;;;;;;;18.35;13.75;;;9.50;99.90;;;;;;5033732;28;20410;-85
2021/09/14 03:27:11;;;;;;;17.38;14.82;;;9.50;99.90;;;;;;5016603;28;20462;-85
2021/09/14 03:29:38;;;;;;;18.00;15.93;;;9.40;99.90;;;;;;5033710;28;20049;-85
2021/09/14 03:32:05;;;;;;;18.45;14.52;;;9.40;99.90;;;;;;5033781;28;20042;-86
2021/09/14 03:34:32;;;;;;;17.52;14.75;;;9.40;99.90;;;;;;5033157;28;20049;-86
2021/09/14 03:36:59;;;;;;;17.92;15.23;;;9.40;99.90;;;;;;5033591;28;20056;-85
2021/09/14 03:39:25;;;;;;;16.67;14.57;;;9.30;99.90;;;;;;5033574;28;20051;-86
2021/09/14 03:41:52;;;;;;;18.05;16.02;;;9.20;99.90;;;;;;5016450;28;20053;-85
2021/09/14 03:44:19;;;;;;;18.55;16.63;;;9.20;99.90;;;;;;5033626;28;20052;-85
2021/09/14 03:46:46;;;;;;;18.60;16.10;;;9.20;99.90;;;;;;5033411;28;20158;-85
2021/09/14 03:49:12;;;;;;;20.15;16.77;;;9.20;99.90;;;;;;5016178;28;20045;-85
2021/09/14 03:51:39;;;;;;;21.02;17.48;;;9.20;99.90;;;;;;5049954;28;20497;-86
2021/09/14 03:54:06;;;;;;;18.52;16.40;;;9.30;99.90;;;;;;5034296;28;20083;-86
2021/09/14 03:56:32;;;;;;;17.55;15.52;;;9.30;99.90;;;;;;5017122;28;20139;-86
2021/09/14 03:58:59;;;;;;;17.92;16.00;;;9.30;99.90;;;;;;5033345;28;20417;-85
2021/09/14 04:01:26;;;;;;;19.05;15.65;;;9.30;99.90;;;;;;5033312;28;20446;-86
2021/09/14 04:03:59;;;;;;;17.67;15.60;;;9.30;99.90;;;;;;5015935;28;20056;-85
2021/09/14 04:08:58;;;;;;;19.58;16.92;;;9.20;99.90;;;;;;5033426;28;20053;-86
2021/09/14 04:11:25;;;;;;;22.85;16.73;;;9.20;99.90;;;;;;5033356;28;20049;-85
2021/09/14 04:13:53;;;;;;;20.10;16.27;;;9.20;99.90;;;;;;5015810;28;20504;-85
2021/09/14 04:16:20;;;;;;;18.90;16.90;;;9.10;99.90;;;;;;5033015;28;20047;-86
2021/09/14 04:18:47;;;;;;;22.08;19.30;;;9.20;99.90;;;;;;5015847;28;20063;-86
2021/09/14 04:21:15;;;;;;;26.30;20.33;;;9.10;99.90;;;;;;5033185;28;20052;-86
2021/09/14 04:23:42;;;;;;;30.08;21.30;;;9.10;99.90;;;;;;5015761;28;20053;-86
2021/09/14 04:26:09;;;;;;;21.77;18.63;;;9.00;99.90;;;;;;5015740;28;20041;-86
2021/09/14 04:28:35;;;;;;;18.80;16.80;;;9.10;99.90;;;;;;5015483;28;20045;-86
2021/09/14 04:31:02;;;;;;;22.58;17.67;;;9.10;99.90;;;;;;5015532;28;20045;-86
2021/09/14 04:33:29;;;;;;;21.38;16.88;;;9.10;99.90;;;;;;5015685;28;20049;-85
2021/09/14 04:35:55;;;;;;;22.25;16.08;;;9.00;99.90;;;;;;5015988;28;20475;-86
2021/09/14 04:38:23;;;;;;;21.42;17.73;;;8.90;99.90;;;;;;5015824;28;20045;-86
2021/09/14 04:40:49;;;;;;;26.50;18.33;;;8.90;99.90;;;;;;5015515;28;20056;-85
2021/09/14 04:43:16;;;;;;;18.38;16.48;;;8.90;99.90;;;;;;5015649;28;20054;-86
2021/09/14 04:45:43;;;;;;;24.95;20.00;;;8.90;99.90;;;;;;5015668;28;20045;-86
2021/09/14 04:48:10;;;;;;;27.67;20.77;;;8.90;99.90;;;;;;5019928;28;20136;-86
2021/09/14 04:50:38;;;;;;;26.85;20.65;;;8.90;99.90;;;;;;5037484;28;20046;-86
2021/09/14 04:53:04;;;;;;;27.10;20.90;;;8.90;99.90;;;;;;5019945;28;20112;-86
2021/09/14 04:55:31;;;;;;;26.42;20.02;;;8.80;99.90;;;;;;5037108;28;20042;-86
2021/09/14 04:57:58;;;;;;;26.73;19.40;;;8.90;99.90;;;;;;5037020;28;20494;-86
2021/09/14 05:00:26;;;;;;;24.02;19.05;;;8.80;99.90;;;;;;5037141;28;20413;-86
2021/09/14 05:02:53;;;;;;;22.83;18.98;;;8.90;99.90;;;;;;5036906;28;20077;-86
2021/09/14 05:05:20;;;;;;;23.65;19.33;;;8.90;99.90;;;;;;5052240;28;20045;-86
2021/09/14 05:07:47;;;;;;;27.63;21.33;;;8.80;99.90;;;;;;5035596;28;20136;-86
2021/09/14 05:10:14;;;;;;;25.02;21.50;;;8.90;99.90;;;;;;5041350;28;20092;-85
2021/09/14 05:12:40;;;;;;;35.97;25.17;;;8.90;99.90;;;;;;5033506;28;20056;-86
2021/09/14 05:15:08;;;;;;;29.75;22.55;;;8.90;99.90;;;;;;5037206;28;20050;-86
2021/09/14 05:17:35;;;;;;;30.75;23.92;;;9.00;99.90;;;;;;5051795;28;20072;-86
2021/09/14 05:20:04;;;;;;;24.77;21.67;;;9.00;99.90;;;;;;5036355;28;20049;-86
2021/09/14 05:22:33;;;;;;;28.90;22.73;;;9.00;99.90;;;;;;5036164;28;20049;-86
2021/09/14 05:25:00;;;;;;;32.78;24.10;;;9.00;99.90;;;;;;5018685;28;20052;-86
2021/09/14 05:27:27;;;;;;;36.42;26.02;;;9.00;99.90;;;;;;5052037;28;20095;-86
2021/09/14 05:29:54;;;;;;;32.38;25.48;;;9.10;99.90;;;;;;5036805;28;20056;-86
2021/09/14 05:32:21;;;;;;;31.58;25.55;;;9.30;99.90;;;;;;5019121;28;20041;-86
2021/09/14 05:34:49;;;;;;;28.20;23.58;;;9.30;99.90;;;;;;5019131;28;20053;-86
2021/09/14 05:37:17;;;;;;;29.60;23.75;;;9.40;99.90;;;;;;5018757;28;20045;-86
2021/09/14 05:39:45;;;;;;;35.53;26.70;;;9.50;99.90;;;;;;5051947;28;20067;-85
2021/09/14 05:42:11;;;;;;;29.38;24.15;;;9.50;99.90;;;;;;5018849;28;20128;-86
2021/09/14 05:44:38;;;;;;;32.33;25.08;;;9.70;99.90;;;;;;5018823;28;20100;-86
2021/09/14 05:47:06;;;;;;;34.60;29.10;;;9.80;99.90;;;;;;5036152;28;20095;-86
2021/09/14 05:49:33;;;;;;;33.13;27.33;;;9.90;99.90;;;;;;5019060;28;20099;-86
2021/09/14 05:51:59;;;;;;;35.13;29.67;;;10.10;99.90;;;;;;5036054;28;20052;-85
2021/09/14 05:54:26;;;;;;;34.33;27.02;;;10.20;99.90;;;;;;5051373;28;20120;-86
2021/09/14 05:56:53;;;;;;;27.73;24.83;;;10.30;99.90;;;;;;5018376;28;20482;-86
2021/09/14 05:59:20;;;;;;;30.33;26.90;;;10.50;99.90;;;;;;5018449;28;20124;-86
2021/09/14 06:01:46;;;;;;;26.20;21.88;;;10.70;99.90;;;;;;5036173;28;20057;-86
2021/09/14 06:04:13;;;;;;;34.70;27.50;;;10.80;99.90;;;;;;5051558;28;20132;-87
2021/09/14 06:06:40;;;;;;;41.63;29.20;;;10.90;99.90;;;;;;5035532;28;20049;-86
2021/09/14 06:09:07;;;;;;;27.58;21.90;;;11.10;99.90;;;;;;5035950;28;20474;-87
2021/09/14 06:11:34;;;;;;;23.10;17.48;;;11.30;99.90;;;;;;5018401;28;20104;-87
2021/09/14 06:14:00;;;;;;;19.50;15.70;;;11.40;99.90;;;;;;5018704;28;20092;-87
2021/09/14 06:16:27;;;;;;;18.48;14.48;;;11.50;99.90;;;;;;5018507;28;20045;-87
2021/09/14 06:18:54;;;;;;;18.33;15.25;;;11.60;99.90;;;;;;5035692;28;20112;-87
2021/09/14 06:21:21;;;;;;;18.30;13.63;;;11.70;99.90;;;;;;5018194;28;20391;-87
2021/09/14 06:23:48;;;;;;;18.45;15.13;;;11.80;99.90;;;;;;5018103;28;20059;-87
2021/09/14 06:26:14;;;;;;;15.95;13.32;;;12.00;99.90;;;;;;5051043;28;20049;-86
2021/09/14 06:28:41;;;;;;;16.08;12.60;;;12.20;99.90;;;;;;5044075;28;20089;-87
2021/09/14 06:31:08;;;;;;;16.50;12.13;;;12.40;99.90;;;;;;5047331;28;20046;-87
2021/09/14 06:33:35;;;;;;;12.20;9.68;;;12.30;99.90;;;;;;5018335;28;20057;-86
2021/09/14 06:36:02;;;;;;;11.95;10.23;;;12.40;99.90;;;;;;5035159;28;20048;-87
2021/09/14 06:38:29;;;;;;;17.52;10.90;;;12.60;99.90;;;;;;5017923;28;20065;-87
2021/09/14 06:40:56;;;;;;;28.27;11.32;;;12.80;99.90;;;;;;5017781;28;20459;-86
2021/09/14 06:43:23;;;;;;;15.57;8.93;;;13.00;99.90;;;;;;5017720;28;20049;-87
2021/09/14 06:45:49;;;;;;;18.45;10.30;;;13.20;99.90;;;;;;5018111;28;20084;-86
2021/09/14 06:48:16;;;;;;;25.52;8.85;;;13.20;99.90;;;;;;5017968;28;20055;-87
2021/09/14 06:50:43;;;;;;;19.40;9.15;;;13.30;99.90;;;;;;5017944;28;20088;-88
2021/09/14 06:53:11;;;;;;;30.60;9.20;;;13.20;99.90;;;;;;5017819;28;20132;-88
2021/09/14 06:55:38;;;;;;;27.02;9.68;;;13.40;99.90;;;;;;5017814;28;20076;-88
2021/09/14 06:58:05;;;;;;;29.70;9.65;;;13.40;99.90;;;;;;5033869;28;20064;-88
2021/09/14 07:00:32;;;;;;;24.17;9.48;;;13.60;99.90;;;;;;5034456;28;20053;-86
2021/09/14 07:02:59;;;;;;;20.90;8.55;;;13.80;99.90;;;;;;5050574;28;20077;-87
2021/09/14 07:05:26;;;;;;;17.90;7.88;;;14.10;99.90;;;;;;5017781;28;20059;-87
2021/09/14 07:07:53;;;;;;;26.60;8.73;;;14.30;99.90;;;;;;5050238;28;20061;-87
2021/09/14 07:10:20;;;;;;;43.65;9.98;;;14.40;99.90;;;;;;5016914;28;20050;-86
2021/09/14 07:12:47;;;;;;;30.00;10.45;;;14.60;99.90;;;;;;5017185;28;20091;-87
2021/09/14 07:15:14;;;;;;;42.25;11.02;;;14.80;99.90;;;;;;5016931;28;20052;-87
2021/09/14 07:17:43;;;;;;;34.30;9.88;;;15.10;99.90;;;;;;5016754;28;20060;-87
2021/09/14 07:20:11;;;;;;;25.17;9.50;;;15.60;99.90;;;;;;5017044;28;20103;-86
2021/09/14 07:22:37;;;;;;;29.02;9.43;;;15.90;99.90;;;;;;5016543;28;20050;-86
2021/09/14 07:25:05;;;;;;;27.17;10.05;;;16.30;99.90;;;;;;5034219;28;20565;-87
2021/09/14 07:27:32;;;;;;;30.73;9.45;;;16.40;99.90;;;;;;5033990;28;20048;-87
2021/09/14 07:29:59;;;;;;;33.95;11.00;;;16.70;99.90;;;;;;5049460;28;20102;-86
2021/09/14 07:32:26;;;;;;;36.75;11.65;;;17.00;99.90;;;;;;5016707;28;20057;-87
2021/09/14 07:34:53;;;;;;;39.60;13.05;;;17.20;99.90;;;;;;5016416;28;20049;-86
2021/09/14 07:37:19;;;;;;;41.17;11.07;;;17.60;99.90;;;;;;5034123;28;20172;-86
2021/09/14 07:39:46;;;;;;;39.33;11.60;;;17.90;99.90;;;;;;5049225;28;20045;-87
2021/09/14 07:42:13;;;;;;;37.13;11.07;;;18.10;99.90;;;;;;5033777;28;20049;-87
2021/09/14 07:44:40;;;;;;;32.20;9.55;;;18.80;99.90;;;;;;5016213;28;20049;-88
2021/09/14 07:47:07;;;;;;;35.53;9.98;;;19.40;99.90;;;;;;5024095;28;20060;-87
2021/09/14 07:49:34;;;;;;;20.98;7.03;;;20.60;99.90;;;;;;5030055;28;20493;-87
2021/09/14 07:52:01;;;;;;;21.23;6.75;;;21.30;99.90;;;;;;5017038;28;20144;-88
2021/09/14 07:54:28;;;;;;;25.63;7.05;;;22.30;99.90;;;;;;5016819;28;20053;-84
2021/09/14 07:56:55;;;;;;;26.95;5.93;;;23.50;99.90;;;;;;5016414;28;20160;-85
2021/09/14 07:59:21;;;;;;;14.68;6.30;;;24.50;99.90;;;;;;5049171;28;20053;-85
2021/09/14 08:01:48;;;;;;;22.95;5.63;;;25.30;99.90;;;;;;5016062;28;20054;-85
2021/09/14 08:04:15;;;;;;;17.65;5.75;;;26.20;97.20;;;;;;5016172;28;20053;-85
2021/09/14 08:06:42;;;;;;;16.77;5.90;;;26.70;96.10;;;;;;5016206;28;20057;-85
2021/09/14 08:09:08;;;;;;;18.45;5.30;;;27.50;92.10;;;;;;5049156;28;20080;-85
2021/09/14 08:11:35;;;;;;;12.75;5.40;;;28.10;90.50;;;;;;5015892;28;20046;-85
2021/09/14 08:14:02;;;;;;;23.65;5.32;;;28.10;90.00;;;;;;5033653;28;20132;-86
2021/09/14 08:16:29;;;;;;;12.73;4.95;;;28.30;86.50;;;;;;5015972;28;20063;-86
2021/09/14 08:18:56;;;;;;;14.93;6.40;;;28.60;85.30;;;;;;5015930;28;20055;-85
2021/09/14 08:21:23;;;;;;;22.80;6.55;;;29.70;81.50;;;;;;5015886;28;20486;-84
2021/09/14 08:23:51;;;;;;;16.92;4.78;;;30.30;79.00;;;;;;5016065;28;20053;-85
2021/09/14 08:26:18;;;;;;;14.95;5.53;;;31.10;76.70;;;;;;5016017;28;20084;-85
2021/09/14 08:28:44;;;;;;;18.95;5.55;;;31.10;74.00;;;;;;5016265;28;20096;-87
2021/09/14 08:31:11;;;;;;;16.05;4.93;;;30.30;74.40;;;;;;5016391;28;20411;-86
2021/09/14 08:33:38;;;;;;;18.73;6.05;;;30.40;74.00;;;;;;5033291;28;20639;-86
2021/09/14 08:36:07;;;;;;;14.20;5.07;;;29.90;74.90;;;;;;5016050;28;20508;-85
2021/09/14 08:38:33;;;;;;;11.35;4.95;;;29.80;75.50;;;;;;5015857;28;20081;-86
2021/09/14 08:41:01;;;;;;;15.75;3.97;;;30.40;74.80;;;;;;5015833;28;20483;-84
2021/09/14 08:43:30;;;;;;;19.05;4.47;;;31.00;74.70;;;;;;5015562;28;20053;-85
2021/09/14 08:45:56;;;;;;;12.38;4.20;;;31.70;73.30;;;;;;5015862;28;20067;-85
2021/09/14 08:48:26;;;;;;;13.68;4.50;;;31.40;74.60;;;;;;5048354;28;20060;-85
2021/09/14 08:50:53;;;;;;;9.23;4.43;;;31.10;73.80;;;;;;5033346;28;20136;-85
2021/09/14 08:53:20;;;;;;;13.70;4.35;;;30.60;75.10;;;;;;5015793;28;20045;-85
2021/09/14 08:55:47;;;;;;;10.10;3.95;;;30.70;75.30;;;;;;5033207;28;20059;-84
2021/09/14 08:58:14;;;;;;;8.10;3.63;;;30.50;75.80;;;;;;5015684;28;20516;-86
2021/09/14 09:00:42;;;;;;;10.23;3.50;;;29.60;77.70;;;;;;5015768;28;20049;-85
2021/09/14 09:03:09;;;;;;;12.25;4.10;;;30.60;77.30;;;;;;5015903;28;20057;-86
2021/09/14 09:05:39;;;;;;;9.52;3.28;;;31.20;75.10;;;;;;5037852;28;20037;-86
2021/09/14 09:08:18;;;;;;;8.20;3.10;;;32.00;71.60;;;;;;5048886;28;20080;-85
2021/09/14 09:11:05;;;;;;;7.30;3.35;;;32.30;71.60;;;;;;5016810;28;20055;-85
2021/09/14 09:13:47;;;;;;;5.75;2.72;;;32.50;69.60;;;;;;5015231;28;20136;-85
2021/09/14 09:16:25;;;;;;;4.15;2.55;;;32.80;70.80;;;;;;5033011;28;20056;-87
2021/09/14 09:18:54;;;;;;;6.97;2.53;;;33.10;70.00;;;;;;5015191;28;20409;-85
2021/09/14 09:21:56;;;;;;;3.97;2.35;;;33.60;69.00;;;;;;5032763;28;20056;-86
2021/09/14 09:24:23;;;;;;;3.38;2.33;;;34.20;67.70;;;;;;5022976;28;20053;-87
2021/09/14 09:26:50;;;;;;;2.47;2.28;;;35.00;65.70;;;;;;5032960;28;20045;-86
2021/09/14 09:29:23;;;;;;;2.70;2.50;;;34.80;65.90;;;;;;5015349;28;20121;-85
2021/09/14 09:31:51;;;;;;;4.43;2.22;;;34.90;65.30;;;;;;5033362;28;20076;-85
2021/09/14 09:34:26;;;;;;;3.88;2.15;;;33.80;67.50;;;;;;5036289;28;20048;-86
2021/09/14 09:37:03;;;;;;;3.08;2.15;;;33.90;68.90;;;;;;5019036;28;20132;-85
2021/09/14 09:39:44;;;;;;;2.00;1.90;;;34.70;66.70;;;;;;5019124;28;20049;-87
2021/09/14 09:42:12;;;;;;;2.92;2.35;;;35.90;63.60;;;;;;5019018;28;20073;-86
2021/09/14 09:44:40;;;;;;;3.22;2.40;;;35.70;63.20;;;;;;5018845;28;20520;-83
2021/09/14 09:47:06;;;;;;;2.35;2.03;;;34.00;66.90;;;;;;5018773;28;20049;-86
2021/09/14 09:49:34;;;;;;;5.18;2.47;;;33.50;69.90;;;;;;5036196;28;20041;-87
2021/09/14 09:52:01;;;;;;;2.42;2.28;;;33.50;68.20;;;;;;5036207;28;20046;-86
2021/09/14 09:54:28;;;;;;;6.20;2.25;;;33.10;69.60;;;;;;5035904;28;20053;-85
2021/09/14 09:56:55;;;;;;;3.33;2.17;;;33.10;71.80;;;;;;5018610;28;20049;-86
2021/09/14 09:59:22;;;;;;;3.25;2.08;;;34.60;66.20;;;;;;5036038;28;20391;-87
2021/09/14 10:02:14;;;;;;;2.80;2.30;;;34.50;68.40;;;;;;5036123;28;20047;-85
2021/09/14 10:04:50;;;;;;;2.03;1.90;;;34.80;67.60;;;;;;5035971;28;20103;-85
2021/09/14 10:07:18;;;;;;;5.18;2.15;;;35.90;67.60;;;;;;5018647;28;20062;-85
2021/09/14 10:09:54;;;;;;;3.13;2.17;;;36.70;63.70;;;;;;5035877;28;20532;-85
2021/09/14 10:12:32;;;;;;;2.42;2.22;;;35.40;65.40;;;;;;5035868;28;20056;-85
2021/09/14 10:15:08;;;;;;;1.88;1.77;;;36.30;62.50;;;;;;5035578;28;20064;-85
2021/09/14 10:17:48;;;;;;;2.70;2.20;;;36.70;62.60;;;;;;5035644;28;20051;-85
2021/09/14 10:20:16;;;;;;;2.25;2.15;;;37.00;62.30;;;;;;5018163;28;20482;-85
2021/09/14 10:22:57;;;;;;;2.17;2.05;;;36.90;63.00;;;;;;5035985;28;20055;-86
2021/09/14 10:25:24;;;;;;;2.33;1.77;;;38.30;60.40;;;;;;5028500;28;20072;-85
2021/09/14 10:27:50;;;;;;;2.17;1.90;;;39.30;57.60;;;;;;5048867;28;20076;-86
2021/09/14 10:30:23;;;;;;;3.45;1.90;;;39.40;54.50;;;;;;5020429;28;20056;-85
2021/09/14 10:32:50;;;;;;;2.58;1.50;;;40.20;53.30;;;;;;5017886;28;20056;-85
2021/09/14 10:35:35;;;;;;;1.67;1.25;;;40.40;52.30;;;;;;5017608;28;20132;-85
2021/09/14 10:38:10;;;;;;;2.55;1.50;;;41.70;51.00;;;;;;5018068;28;20417;-84
2021/09/14 10:40:43;;;;;;;8.70;1.98;;;42.10;49.40;;;;;;5017670;28;20072;-85
2021/09/14 10:43:29;;;;;;;4.15;1.70;;;41.20;50.70;;;;;;5017185;28;20052;-84
2021/09/14 10:45:57;;;;;;;1.48;1.35;;;41.20;49.20;;;;;;5017415;28;20514;-85
2021/09/14 10:48:32;;;;;;;1.52;1.40;;;41.50;48.50;;;;;;5017679;28;20048;-85
2021/09/14 10:51:13;;;;;;;1.75;1.50;;;39.60;49.70;;;;;;5017621;28;20060;-85
2021/09/14 10:53:40;;;;;;;3.90;1.42;;;37.80;51.50;;;;;;5034511;28;20050;-84
2021/09/14 10:56:10;;;;;;;5.97;2.15;;;37.40;52.40;;;;;;5050225;28;20490;-85
2021/09/14 10:58:42;;;;;;;2.17;1.80;;;37.10;53.20;;;;;;5017200;28;20060;-85
2021/09/14 11:01:10;;;;;;;1.60;1.50;;;38.80;52.60;;;;;;5034700;28;20045;-84
2021/09/14 11:03:37;;;;;;;5.47;1.83;;;39.40;52.80;;;;;;5017295;28;20049;-84
2021/09/14 11:06:08;;;;;;;5.80;1.70;;;39.20;51.40;;;;;;5017200;28;20046;-84
2021/09/14 11:08:34;;;;;;;2.42;1.67;;;39.40;50.80;;;;;;5017202;28;20057;-84
2021/09/14 11:11:02;;;;;;;3.92;2.28;;;38.50;50.50;;;;;;5017096;28;20049;-85
2021/09/14 11:13:31;;;;;;;4.55;1.92;;;38.70;50.80;;;;;;5034878;28;20081;-84
2021/09/14 11:16:04;;;;;;;1.90;1.65;;;38.10;51.20;;;;;;5017088;28;20045;-85
2021/09/14 11:18:34;;;;;;;4.65;1.83;;;37.80;52.00;;;;;;5035050;28;20049;-84
2021/09/14 11:21:06;;;;;;;3.42;1.75;;;35.90;54.50;;;;;;5016663;28;20049;-86
2021/09/14 11:23:34;;;;;;;2.67;2.33;;;34.20;54.00;;;;;;5034396;28;20096;-85
2021/09/14 11:26:02;;;;;;;2.00;1.65;;;33.40;57.10;;;;;;5016424;28;20300;-84
2021/09/14 11:28:29;;;;;;;5.18;2.10;;;33.10;58.70;;;;;;5016491;28;20071;-84
2021/09/14 11:30:58;;;;;;;4.10;2.17;;;33.20;58.50;;;;;;5033657;28;20068;-84
2021/09/14 11:33:27;;;;;;;2.00;1.90;;;33.50;57.40;;;;;;5016311;28;20055;-85
2021/09/14 11:35:56;;;;;;;3.47;2.00;;;33.00;57.60;;;;;;5016386;28;20053;-86
2021/09/14 11:38:23;;;;;;;6.57;3.10;;;33.10;58.00;;;;;;5016511;28;20164;-85
2021/09/14 11:40:56;;;;;;;2.83;1.95;;;32.80;57.90;;;;;;5016414;28;20051;-86
2021/09/14 11:43:33;;;;;;;2.05;1.83;;;32.60;58.30;;;;;;5016788;28;20084;-84
2021/09/14 11:46:12;;;;;;;1.90;1.70;;;32.70;59.90;;;;;;5040872;28;20050;-86
2021/09/14 11:48:38;;;;;;;3.08;1.67;;;32.90;58.10;;;;;;5036095;28;20049;-88
2021/09/14 11:51:11;;;;;;;5.10;2.15;;;33.00;58.50;;;;;;5049446;28;20502;-85
2021/09/14 11:53:45;;;;;;;2.00;1.90;;;32.40;59.90;;;;;;5016311;28;20049;-85
2021/09/14 11:56:15;;;;;;;12.32;2.60;;;32.40;58.90;;;;;;5014908;28;20538;-84
2021/09/14 11:58:49;;;;;;;2.65;1.60;;;32.10;60.20;;;;;;5014523;28;20474;-90
2021/09/14 12:01:18;;;;;;;2.47;2.00;;;31.90;59.10;;;;;;5016321;28;20045;-85
2021/09/14 12:03:51;;;;;;;3.15;2.00;;;32.00;59.90;;;;;;5033553;28;20057;-85
2021/09/14 12:06:29;;;;;;;1.90;1.80;;;32.30;61.00;;;;;;5015777;28;20049;-84
2021/09/14 12:08:58;;;;;;;2.08;1.98;;;31.80;60.80;;;;;;5015623;28;20046;-85
2021/09/14 12:11:29;;;;;;;3.70;2.08;;;31.50;61.10;;;;;;5015658;28;20047;-83
2021/09/14 12:13:58;;;;;;;5.25;2.10;;;31.60;61.50;;;;;;5032945;28;20049;-84
2021/09/14 12:16:29;;;;;;;2.65;1.60;;;31.40;62.60;;;;;;5015393;28;20494;-84
2021/09/14 12:18:56;;;;;;;5.47;3.00;;;31.20;62.10;;;;;;5033026;28;20045;-85
2021/09/14 12:21:24;;;;;;;4.43;1.80;;;30.80;62.20;;;;;;5031725;28;20057;-83
2021/09/14 12:23:52;;;;;;;7.10;2.70;;;30.60;64.00;;;;;;5015429;28;20052;-84
2021/09/14 12:26:24;;;;;;;2.35;2.15;;;30.60;65.80;;;;;;5032032;28;20593;-84
2021/09/14 12:28:57;;;;;;;2.75;2.10;;;30.60;64.70;;;;;;5015314;28;20486;-85
2021/09/14 12:31:28;;;;;;;2.75;1.88;;;30.10;64.70;;;;;;5016175;28;20107;-86
2021/09/14 12:33:55;;;;;;;1.98;1.88;;;29.90;64.70;;;;;;5048384;28;20501;-84
2021/09/14 12:36:22;;;;;;;3.53;1.90;;;29.60;66.00;;;;;;5015531;28;20049;-87
2021/09/14 12:38:48;;;;;;;3.40;2.15;;;29.60;66.60;;;;;;5048760;28;20401;-84
2021/09/14 12:41:15;;;;;;;6.15;2.42;;;29.40;67.10;;;;;;5015507;28;20056;-86
2021/09/14 12:43:47;;;;;;;3.90;2.30;;;29.00;66.00;;;;;;5014380;28;20613;-87
2021/09/14 12:46:15;;;;;;;2.60;2.05;;;28.90;67.60;;;;;;5032333;28;20084;-85
2021/09/14 12:48:43;;;;;;;2.45;1.98;;;28.80;68.60;;;;;;5032283;28;20064;-85
2021/09/14 12:51:10;;;;;;;2.42;2.22;;;28.70;68.60;;;;;;5032204;28;20050;-86
2021/09/14 12:53:37;;;;;;;7.45;2.38;;;28.60;69.20;;;;;;5015387;28;20049;-86
2021/09/14 12:56:05;;;;;;;1.83;1.70;;;28.70;72.10;;;;;;5015522;28;20050;-85
2021/09/14 12:58:45;;;;;;;5.32;2.25;;;28.60;68.70;;;;;;5017048;28;20046;-85
2021/09/14 13:01:12;;;;;;;6.78;2.70;;;28.60;70.00;;;;;;5032356;28;20061;-84
2021/09/14 13:03:39;;;;;;;2.35;1.88;;;28.80;70.00;;;;;;5015182;28;20049;-84
2021/09/14 13:06:06;;;;;;;3.53;1.98;;;28.90;69.60;;;;;;5035105;28;20087;-87
2021/09/14 13:08:32;;;;;;;4.53;2.28;;;28.70;68.60;;;;;;5020597;28;20155;-84
2021/09/14 13:10:59;;;;;;;6.78;2.22;;;28.10;70.10;;;;;;5051592;28;20140;-85
2021/09/14 13:16:12;;;;;;;5.30;2.55;;;28.10;72.50;;;;;;5036091;28;20053;-84
2021/09/14 13:18:40;;;;;;;3.33;2.38;;;28.20;71.20;;;;;;5018828;28;20050;-86
2021/09/14 13:21:07;;;;;;;3.25;2.40;;;28.10;71.40;;;;;;5018516;28;20059;-85
2021/09/14 13:23:34;;;;;;;6.00;2.53;;;27.90;70.70;;;;;;5018832;28;20077;-88
2021/09/14 13:26:03;;;;;;;5.93;2.10;;;27.70;71.20;;;;;;5018662;28;20516;-86
2021/09/14 13:28:30;;;;;;;4.47;2.10;;;27.70;71.40;;;;;;5019052;28;20051;-85
2021/09/14 13:30:57;;;;;;;3.15;2.10;;;27.60;72.20;;;;;;5018689;28;20056;-83
2021/09/14 13:33:24;;;;;;;3.67;2.58;;;27.50;74.50;;;;;;5035660;28;20045;-84
2021/09/14 13:35:50;;;;;;;3.47;2.22;;;27.30;74.40;;;;;;5035917;28;20430;-84
2021/09/14 13:38:17;;;;;;;2.72;2.00;;;27.10;74.80;;;;;;5019218;28;20069;-85
2021/09/14 13:40:46;;;;;;;6.68;2.22;;;26.90;73.10;;;;;;5018424;28;20053;-84
2021/09/14 13:43:16;;;;;;;2.20;1.98;;;26.90;77.10;;;;;;5018634;28;20049;-85
2021/09/14 13:48:30;;;;;;;3.88;2.03;;;26.90;77.90;;;;;;5034818;28;20046;-86
2021/09/14 13:50:56;;;;;;;6.97;2.28;;;27.00;76.80;;;;;;5035578;28;20052;-85